sensor_id;sensor_type;location;lat;lon;timestamp;P1;durP1;ratioP1;P2;durP2;ratioP2
4391;SDS011;2210;51.938;8.488;2023-04-06T00:02:37;3.80;;;3.10;;
4391;SDS011;2210;51.938;8.488;2023-04-06T00:06:46;2.70;;;2.50;;
4391;SDS011;2210;51.938;8.488;2023-04-06T00:10:47;4.77;;;3.00;;
4391;SDS011;2210;51.938;8.488;2023-04-06T00:14:53;3.00;;;2.67;;
4391;SDS011;2210;51.938;8.488;2023-04-06T00:18:53;2.80;;;2.60;;
4391;SDS011;2210;51.938;8.488;2023-04-06T00:27:19;4.93;;;3.53;;
4391;SDS011;2210;51.938;8.488;2023-04-06T00:31:20;3.20;;;2.90;;
4391;SDS011;2210;51.938;8.488;2023-04-06T00:40:11;5.40;;;2.60;;
4391;SDS011;2210;51.938;8.488;2023-04-06T00:44:26;2.80;;;2.60;;
4391;SDS011;2210;51.938;8.488;2023-04-06T00:48:32;4.23;;;2.97;;
4391;SDS011;2210;51.938;8.488;2023-04-06T00:52:33;3.87;;;3.30;;
4391;SDS011;2210;51.938;8.488;2023-04-06T00:56:43;3.40;;;2.80;;
4391;SDS011;2210;51.938;8.488;2023-04-06T01:00:43;7.00;;;3.10;;
4391;SDS011;2210;51.938;8.488;2023-04-06T01:04:44;2.83;;;2.63;;
4391;SDS011;2210;51.938;8.488;2023-04-06T01:08:45;3.43;;;2.73;;
4391;SDS011;2210;51.938;8.488;2023-04-06T01:12:45;3.50;;;2.93;;
4391;SDS011;2210;51.938;8.488;2023-04-06T01:16:45;3.60;;;3.30;;
4391;SDS011;2210;51.938;8.488;2023-04-06T01:20:45;3.77;;;3.13;;
4391;SDS011;2210;51.938;8.488;2023-04-06T01:24:49;4.27;;;2.90;;
4391;SDS011;2210;51.938;8.488;2023-04-06T01:28:58;3.07;;;2.80;;
4391;SDS011;2210;51.938;8.488;2023-04-06T01:32:58;3.47;;;2.73;;
4391;SDS011;2210;51.938;8.488;2023-04-06T01:37:02;4.20;;;3.67;;
4391;SDS011;2210;51.938;8.488;2023-04-06T01:41:09;4.70;;;4.20;;
4391;SDS011;2210;51.938;8.488;2023-04-06T01:45:09;6.63;;;3.50;;
4391;SDS011;2210;51.938;8.488;2023-04-06T01:49:10;3.77;;;3.47;;
4391;SDS011;2210;51.938;8.488;2023-04-06T01:53:13;3.80;;;3.50;;
4391;SDS011;2210;51.938;8.488;2023-04-06T01:57:14;3.90;;;3.40;;
4391;SDS011;2210;51.938;8.488;2023-04-06T02:01:14;3.17;;;2.97;;
4391;SDS011;2210;51.938;8.488;2023-04-06T02:05:15;3.77;;;3.33;;
4391;SDS011;2210;51.938;8.488;2023-04-06T02:09:15;4.43;;;3.93;;
4391;SDS011;2210;51.938;8.488;2023-04-06T02:13:15;4.00;;;3.60;;
4391;SDS011;2210;51.938;8.488;2023-04-06T02:17:16;4.53;;;3.77;;
4391;SDS011;2210;51.938;8.488;2023-04-06T02:21:16;3.70;;;3.30;;
4391;SDS011;2210;51.938;8.488;2023-04-06T02:25:19;3.70;;;3.30;;
4391;SDS011;2210;51.938;8.488;2023-04-06T02:29:20;4.27;;;3.87;;
4391;SDS011;2210;51.938;8.488;2023-04-06T02:33:23;5.60;;;3.80;;
4391;SDS011;2210;51.938;8.488;2023-04-06T02:37:29;4.83;;;3.53;;
4391;SDS011;2210;51.938;8.488;2023-04-06T02:41:33;4.23;;;3.83;;
4391;SDS011;2210;51.938;8.488;2023-04-06T02:45:36;4.83;;;4.27;;
4391;SDS011;2210;51.938;8.488;2023-04-06T02:49:36;3.63;;;3.20;;
4391;SDS011;2210;51.938;8.488;2023-04-06T02:53:36;3.97;;;3.67;;
4391;SDS011;2210;51.938;8.488;2023-04-06T02:57:43;3.50;;;3.23;;
4391;SDS011;2210;51.938;8.488;2023-04-06T03:01:48;3.57;;;3.23;;
4391;SDS011;2210;51.938;8.488;2023-04-06T03:05:52;3.80;;;3.50;;
4391;SDS011;2210;51.938;8.488;2023-04-06T03:09:58;5.30;;;3.10;;
4391;SDS011;2210;51.938;8.488;2023-04-06T03:13:58;3.60;;;3.30;;
4391;SDS011;2210;51.938;8.488;2023-04-06T03:18:04;4.10;;;3.80;;
4391;SDS011;2210;51.938;8.488;2023-04-06T03:22:17;4.20;;;3.90;;
4391;SDS011;2210;51.938;8.488;2023-04-06T03:26:17;4.10;;;3.70;;
4391;SDS011;2210;51.938;8.488;2023-04-06T03:30:18;4.03;;;3.63;;
4391;SDS011;2210;51.938;8.488;2023-04-06T03:34:18;4.97;;;4.07;;
4391;SDS011;2210;51.938;8.488;2023-04-06T03:38:18;4.00;;;3.25;;
4391;SDS011;2210;51.938;8.488;2023-04-06T03:42:19;4.53;;;3.30;;
4391;SDS011;2210;51.938;8.488;2023-04-06T03:46:22;6.07;;;4.05;;
4391;SDS011;2210;51.938;8.488;2023-04-06T03:50:28;14.73;;;4.33;;
4391;SDS011;2210;51.938;8.488;2023-04-06T03:54:47;5.90;;;3.90;;
4391;SDS011;2210;51.938;8.488;2023-04-06T03:58:47;5.53;;;4.00;;
4391;SDS011;2210;51.938;8.488;2023-04-06T04:02:50;5.23;;;4.17;;
4391;SDS011;2210;51.938;8.488;2023-04-06T04:06:50;4.18;;;3.53;;
4391;SDS011;2210;51.938;8.488;2023-04-06T04:10:56;7.30;;;4.43;;
4391;SDS011;2210;51.938;8.488;2023-04-06T04:14:57;3.93;;;3.53;;
4391;SDS011;2210;51.938;8.488;2023-04-06T04:19:00;5.43;;;4.20;;
4391;SDS011;2210;51.938;8.488;2023-04-06T04:23:00;5.20;;;4.33;;
4391;SDS011;2210;51.938;8.488;2023-04-06T04:27:01;4.10;;;3.70;;
4391;SDS011;2210;51.938;8.488;2023-04-06T04:31:01;5.47;;;4.10;;
4391;SDS011;2210;51.938;8.488;2023-04-06T04:35:01;4.30;;;3.83;;
4391;SDS011;2210;51.938;8.488;2023-04-06T04:39:02;4.20;;;3.80;;
4391;SDS011;2210;51.938;8.488;2023-04-06T04:43:02;5.70;;;4.20;;
4391;SDS011;2210;51.938;8.488;2023-04-06T04:47:02;6.57;;;4.30;;
4391;SDS011;2210;51.938;8.488;2023-04-06T04:51:05;7.77;;;4.80;;
4391;SDS011;2210;51.938;8.488;2023-04-06T04:55:06;7.23;;;4.57;;
4391;SDS011;2210;51.938;8.488;2023-04-06T04:59:09;9.70;;;4.97;;
4391;SDS011;2210;51.938;8.488;2023-04-06T05:03:18;5.27;;;4.30;;
4391;SDS011;2210;51.938;8.488;2023-04-06T05:07:21;8.73;;;5.47;;
4391;SDS011;2210;51.938;8.488;2023-04-06T05:11:22;13.13;;;6.00;;
4391;SDS011;2210;51.938;8.488;2023-04-06T05:15:22;13.10;;;6.00;;
4391;SDS011;2210;51.938;8.488;2023-04-06T05:19:23;9.75;;;6.85;;
4391;SDS011;2210;51.938;8.488;2023-04-06T05:23:23;13.50;;;6.10;;
4391;SDS011;2210;51.938;8.488;2023-04-06T05:27:23;9.63;;;4.90;;
4391;SDS011;2210;51.938;8.488;2023-04-06T05:31:23;8.20;;;4.90;;
4391;SDS011;2210;51.938;8.488;2023-04-06T05:35:24;7.47;;;4.70;;
4391;SDS011;2210;51.938;8.488;2023-04-06T05:39:25;6.47;;;4.20;;
4391;SDS011;2210;51.938;8.488;2023-04-06T05:43:25;6.27;;;4.30;;
4391;SDS011;2210;51.938;8.488;2023-04-06T05:47:25;6.55;;;4.40;;
4391;SDS011;2210;51.938;8.488;2023-04-06T05:51:26;8.63;;;4.50;;
4391;SDS011;2210;51.938;8.488;2023-04-06T05:55:27;9.47;;;4.27;;
4391;SDS011;2210;51.938;8.488;2023-04-06T05:59:27;7.20;;;5.43;;
4391;SDS011;2210;51.938;8.488;2023-04-06T06:03:31;7.23;;;3.97;;
4391;SDS011;2210;51.938;8.488;2023-04-06T06:07:34;7.70;;;4.63;;
4391;SDS011;2210;51.938;8.488;2023-04-06T06:11:34;4.87;;;3.70;;
4391;SDS011;2210;51.938;8.488;2023-04-06T06:15:38;6.60;;;4.20;;
4391;SDS011;2210;51.938;8.488;2023-04-06T06:19:38;4.00;;;3.60;;
4391;SDS011;2210;51.938;8.488;2023-04-06T06:23:38;6.40;;;3.92;;
4391;SDS011;2210;51.938;8.488;2023-04-06T06:27:42;4.60;;;3.30;;
4391;SDS011;2210;51.938;8.488;2023-04-06T06:31:42;4.80;;;3.27;;
4391;SDS011;2210;51.938;8.488;2023-04-06T06:35:49;4.07;;;3.23;;
4391;SDS011;2210;51.938;8.488;2023-04-06T06:39:50;3.53;;;2.87;;
4391;SDS011;2210;51.938;8.488;2023-04-06T06:43:50;4.93;;;3.73;;
4391;SDS011;2210;51.938;8.488;2023-04-06T06:47:50;4.35;;;3.78;;
4391;SDS011;2210;51.938;8.488;2023-04-06T06:51:50;3.97;;;3.50;;
4391;SDS011;2210;51.938;8.488;2023-04-06T06:56:00;5.80;;;4.10;;
4391;SDS011;2210;51.938;8.488;2023-04-06T07:00:07;3.90;;;3.50;;
4391;SDS011;2210;51.938;8.488;2023-04-06T07:04:11;4.20;;;3.70;;
4391;SDS011;2210;51.938;8.488;2023-04-06T07:08:11;5.30;;;4.13;;
4391;SDS011;2210;51.938;8.488;2023-04-06T07:12:14;5.30;;;3.70;;
4391;SDS011;2210;51.938;8.488;2023-04-06T07:16:16;3.70;;;3.40;;
4391;SDS011;2210;51.938;8.488;2023-04-06T07:20:16;3.70;;;3.38;;
4391;SDS011;2210;51.938;8.488;2023-04-06T07:24:16;4.03;;;3.40;;
4391;SDS011;2210;51.938;8.488;2023-04-06T07:28:17;4.33;;;3.93;;
4391;SDS011;2210;51.938;8.488;2023-04-06T07:32:17;4.00;;;3.60;;
4391;SDS011;2210;51.938;8.488;2023-04-06T07:36:18;6.18;;;4.22;;
4391;SDS011;2210;51.938;8.488;2023-04-06T07:40:30;3.93;;;3.53;;
4391;SDS011;2210;51.938;8.488;2023-04-06T07:44:38;4.30;;;3.70;;
4391;SDS011;2210;51.938;8.488;2023-04-06T07:48:39;3.90;;;3.57;;
4391;SDS011;2210;51.938;8.488;2023-04-06T07:52:46;5.70;;;3.87;;
4391;SDS011;2210;51.938;8.488;2023-04-06T07:56:49;4.80;;;4.17;;
4391;SDS011;2210;51.938;8.488;2023-04-06T08:00:52;4.67;;;3.80;;
4391;SDS011;2210;51.938;8.488;2023-04-06T08:04:52;4.60;;;3.97;;
4391;SDS011;2210;51.938;8.488;2023-04-06T08:08:53;6.18;;;3.58;;
4391;SDS011;2210;51.938;8.488;2023-04-06T08:12:54;3.70;;;3.37;;
4391;SDS011;2210;51.938;8.488;2023-04-06T08:16:54;4.33;;;3.50;;
4391;SDS011;2210;51.938;8.488;2023-04-06T08:20:55;3.60;;;3.30;;
4391;SDS011;2210;51.938;8.488;2023-04-06T08:24:55;4.60;;;3.83;;
4391;SDS011;2210;51.938;8.488;2023-04-06T08:28:56;4.87;;;3.87;;
4391;SDS011;2210;51.938;8.488;2023-04-06T08:32:59;4.15;;;3.70;;
4391;SDS011;2210;51.938;8.488;2023-04-06T08:37:06;4.43;;;4.03;;
4391;SDS011;2210;51.938;8.488;2023-04-06T08:41:07;4.00;;;3.70;;
4391;SDS011;2210;51.938;8.488;2023-04-06T08:45:08;4.40;;;4.00;;
4391;SDS011;2210;51.938;8.488;2023-04-06T08:49:09;6.00;;;4.23;;
4391;SDS011;2210;51.938;8.488;2023-04-06T08:53:10;4.70;;;4.17;;
4391;SDS011;2210;51.938;8.488;2023-04-06T08:57:11;4.90;;;3.90;;
4391;SDS011;2210;51.938;8.488;2023-04-06T09:01:12;6.67;;;4.10;;
4391;SDS011;2210;51.938;8.488;2023-04-06T09:05:15;5.10;;;4.60;;
4391;SDS011;2210;51.938;8.488;2023-04-06T09:09:16;7.90;;;5.00;;
4391;SDS011;2210;51.938;8.488;2023-04-06T09:13:16;5.10;;;4.60;;
4391;SDS011;2210;51.938;8.488;2023-04-06T09:17:20;5.82;;;4.47;;
4391;SDS011;2210;51.938;8.488;2023-04-06T09:21:21;5.70;;;4.47;;
4391;SDS011;2210;51.938;8.488;2023-04-06T09:25:22;4.95;;;4.45;;
4391;SDS011;2210;51.938;8.488;2023-04-06T09:29:25;4.63;;;4.10;;
4391;SDS011;2210;51.938;8.488;2023-04-06T09:33:26;4.60;;;4.20;;
4391;SDS011;2210;51.938;8.488;2023-04-06T09:37:27;5.93;;;5.00;;
4391;SDS011;2210;51.938;8.488;2023-04-06T09:41:28;6.13;;;4.80;;
4391;SDS011;2210;51.938;8.488;2023-04-06T09:45:36;6.77;;;5.57;;
4391;SDS011;2210;51.938;8.488;2023-04-06T09:49:36;6.50;;;4.97;;
4391;SDS011;2210;51.938;8.488;2023-04-06T09:53:37;6.57;;;5.67;;
4391;SDS011;2210;51.938;8.488;2023-04-06T09:58:03;6.90;;;5.80;;
4391;SDS011;2210;51.938;8.488;2023-04-06T10:02:05;6.67;;;5.70;;
4391;SDS011;2210;51.938;8.488;2023-04-06T10:06:10;7.13;;;6.40;;
4391;SDS011;2210;51.938;8.488;2023-04-06T10:10:12;5.70;;;5.10;;
4391;SDS011;2210;51.938;8.488;2023-04-06T10:14:15;5.73;;;5.13;;
4391;SDS011;2210;51.938;8.488;2023-04-06T10:18:16;8.47;;;5.57;;
4391;SDS011;2210;51.938;8.488;2023-04-06T10:22:18;9.70;;;5.63;;
4391;SDS011;2210;51.938;8.488;2023-04-06T10:26:24;8.60;;;6.40;;
4391;SDS011;2210;51.938;8.488;2023-04-06T10:30:24;9.40;;;6.20;;
4391;SDS011;2210;51.938;8.488;2023-04-06T10:34:33;6.20;;;5.37;;
4391;SDS011;2210;51.938;8.488;2023-04-06T10:38:35;14.60;;;6.87;;
4391;SDS011;2210;51.938;8.488;2023-04-06T10:42:37;6.73;;;5.90;;
4391;SDS011;2210;51.938;8.488;2023-04-06T10:46:38;9.70;;;6.53;;
4391;SDS011;2210;51.938;8.488;2023-04-06T10:50:38;9.87;;;6.90;;
4391;SDS011;2210;51.938;8.488;2023-04-06T10:54:41;6.57;;;5.37;;
4391;SDS011;2210;51.938;8.488;2023-04-06T10:58:44;10.53;;;7.80;;
4391;SDS011;2210;51.938;8.488;2023-04-06T11:02:48;8.90;;;6.20;;
4391;SDS011;2210;51.938;8.488;2023-04-06T11:06:49;9.33;;;6.83;;
4391;SDS011;2210;51.938;8.488;2023-04-06T11:10:50;10.07;;;7.23;;
4391;SDS011;2210;51.938;8.488;2023-04-06T11:15:08;8.40;;;6.50;;
4391;SDS011;2210;51.938;8.488;2023-04-06T11:19:09;8.10;;;6.17;;
4391;SDS011;2210;51.938;8.488;2023-04-06T11:23:10;9.53;;;7.43;;
4391;SDS011;2210;51.938;8.488;2023-04-06T11:27:10;8.98;;;6.85;;
4391;SDS011;2210;51.938;8.488;2023-04-06T11:31:10;13.43;;;9.20;;
4391;SDS011;2210;51.938;8.488;2023-04-06T11:35:12;10.23;;;7.20;;
4391;SDS011;2210;51.938;8.488;2023-04-06T11:39:20;9.17;;;7.40;;
4391;SDS011;2210;51.938;8.488;2023-04-06T11:43:27;8.77;;;7.03;;
4391;SDS011;2210;51.938;8.488;2023-04-06T11:47:34;11.00;;;8.50;;
4391;SDS011;2210;51.938;8.488;2023-04-06T11:51:37;8.90;;;6.27;;
4391;SDS011;2210;51.938;8.488;2023-04-06T11:55:37;10.30;;;7.97;;
4391;SDS011;2210;51.938;8.488;2023-04-06T11:59:38;11.10;;;7.43;;
4391;SDS011;2210;51.938;8.488;2023-04-06T12:03:38;11.10;;;6.77;;
4391;SDS011;2210;51.938;8.488;2023-04-06T12:07:39;22.05;;;7.53;;
4391;SDS011;2210;51.938;8.488;2023-04-06T12:11:39;9.10;;;5.83;;
4391;SDS011;2210;51.938;8.488;2023-04-06T12:15:40;6.73;;;5.43;;
4391;SDS011;2210;51.938;8.488;2023-04-06T12:19:41;6.32;;;5.55;;
4391;SDS011;2210;51.938;8.488;2023-04-06T12:23:41;6.32;;;5.50;;
4391;SDS011;2210;51.938;8.488;2023-04-06T12:27:41;6.55;;;5.45;;
4391;SDS011;2210;51.938;8.488;2023-04-06T12:31:41;7.40;;;6.37;;
4391;SDS011;2210;51.938;8.488;2023-04-06T12:35:44;7.40;;;5.90;;
4391;SDS011;2210;51.938;8.488;2023-04-06T12:39:46;14.90;;;7.00;;
4391;SDS011;2210;51.938;8.488;2023-04-06T12:43:46;8.10;;;6.50;;
4391;SDS011;2210;51.938;8.488;2023-04-06T12:47:46;10.87;;;6.87;;
4391;SDS011;2210;51.938;8.488;2023-04-06T12:51:49;10.00;;;6.53;;
4391;SDS011;2210;51.938;8.488;2023-04-06T12:55:51;10.73;;;6.93;;
4391;SDS011;2210;51.938;8.488;2023-04-06T12:59:53;7.70;;;5.83;;
4391;SDS011;2210;51.938;8.488;2023-04-06T13:03:53;8.57;;;6.20;;
4391;SDS011;2210;51.938;8.488;2023-04-06T13:07:57;8.37;;;6.07;;
4391;SDS011;2210;51.938;8.488;2023-04-06T13:12:00;7.80;;;6.03;;
4391;SDS011;2210;51.938;8.488;2023-04-06T13:16:02;9.70;;;5.70;;
4391;SDS011;2210;51.938;8.488;2023-04-06T13:20:04;7.40;;;6.57;;
4391;SDS011;2210;51.938;8.488;2023-04-06T13:24:04;6.53;;;5.70;;
4391;SDS011;2210;51.938;8.488;2023-04-06T13:28:05;8.17;;;6.47;;
4391;SDS011;2210;51.938;8.488;2023-04-06T13:32:05;8.87;;;6.60;;
4391;SDS011;2210;51.938;8.488;2023-04-06T13:36:09;14.23;;;7.83;;
4391;SDS011;2210;51.938;8.488;2023-04-06T13:40:12;9.13;;;6.50;;
4391;SDS011;2210;51.938;8.488;2023-04-06T13:44:15;8.63;;;7.00;;
4391;SDS011;2210;51.938;8.488;2023-04-06T13:48:16;10.60;;;7.43;;
4391;SDS011;2210;51.938;8.488;2023-04-06T13:52:16;8.60;;;7.00;;
4391;SDS011;2210;51.938;8.488;2023-04-06T13:56:17;10.80;;;8.00;;
4391;SDS011;2210;51.938;8.488;2023-04-06T14:00:20;11.33;;;7.30;;
4391;SDS011;2210;51.938;8.488;2023-04-06T14:04:21;9.17;;;7.97;;
4391;SDS011;2210;51.938;8.488;2023-04-06T14:08:21;10.90;;;7.37;;
4391;SDS011;2210;51.938;8.488;2023-04-06T14:12:21;10.80;;;8.50;;
4391;SDS011;2210;51.938;8.488;2023-04-06T14:16:23;12.70;;;8.27;;
4391;SDS011;2210;51.938;8.488;2023-04-06T14:20:23;13.43;;;7.90;;
4391;SDS011;2210;51.938;8.488;2023-04-06T14:24:30;9.40;;;8.13;;
4391;SDS011;2210;51.938;8.488;2023-04-06T14:28:32;12.13;;;8.20;;
4391;SDS011;2210;51.938;8.488;2023-04-06T14:32:33;10.87;;;8.50;;
4391;SDS011;2210;51.938;8.488;2023-04-06T14:36:33;9.43;;;7.83;;
4391;SDS011;2210;51.938;8.488;2023-04-06T14:40:36;10.20;;;7.50;;
4391;SDS011;2210;51.938;8.488;2023-04-06T14:44:36;10.97;;;8.60;;
4391;SDS011;2210;51.938;8.488;2023-04-06T14:48:38;12.77;;;7.70;;
4391;SDS011;2210;51.938;8.488;2023-04-06T14:52:38;9.67;;;8.13;;
4391;SDS011;2210;51.938;8.488;2023-04-06T14:56:38;11.43;;;8.60;;
4391;SDS011;2210;51.938;8.488;2023-04-06T15:00:39;12.00;;;8.43;;
4391;SDS011;2210;51.938;8.488;2023-04-06T15:04:39;14.45;;;10.25;;
4391;SDS011;2210;51.938;8.488;2023-04-06T15:08:40;10.70;;;8.97;;
4391;SDS011;2210;51.938;8.488;2023-04-06T15:12:40;12.20;;;9.20;;
4391;SDS011;2210;51.938;8.488;2023-04-06T15:16:40;12.80;;;8.33;;
4391;SDS011;2210;51.938;8.488;2023-04-06T15:20:40;10.37;;;7.93;;
4391;SDS011;2210;51.938;8.488;2023-04-06T15:24:41;11.30;;;7.67;;
4391;SDS011;2210;51.938;8.488;2023-04-06T15:28:41;11.57;;;7.77;;
4391;SDS011;2210;51.938;8.488;2023-04-06T15:32:58;11.00;;;8.80;;
4391;SDS011;2210;51.938;8.488;2023-04-06T15:37:00;8.47;;;6.60;;
4391;SDS011;2210;51.938;8.488;2023-04-06T15:41:01;9.60;;;7.87;;
4391;SDS011;2210;51.938;8.488;2023-04-06T15:45:03;11.40;;;7.73;;
4391;SDS011;2210;51.938;8.488;2023-04-06T15:49:03;9.77;;;7.23;;
4391;SDS011;2210;51.938;8.488;2023-04-06T15:53:03;7.90;;;6.80;;
4391;SDS011;2210;51.938;8.488;2023-04-06T15:57:04;10.47;;;7.43;;
4391;SDS011;2210;51.938;8.488;2023-04-06T16:01:11;10.00;;;7.37;;
4391;SDS011;2210;51.938;8.488;2023-04-06T16:05:15;10.00;;;7.50;;
4391;SDS011;2210;51.938;8.488;2023-04-06T16:09:16;8.83;;;6.73;;
4391;SDS011;2210;51.938;8.488;2023-04-06T16:13:16;11.05;;;8.20;;
4391;SDS011;2210;51.938;8.488;2023-04-06T16:17:16;8.93;;;7.20;;
4391;SDS011;2210;51.938;8.488;2023-04-06T16:21:16;10.00;;;6.37;;
4391;SDS011;2210;51.938;8.488;2023-04-06T16:25:17;14.87;;;7.67;;
4391;SDS011;2210;51.938;8.488;2023-04-06T16:29:18;8.93;;;7.30;;
4391;SDS011;2210;51.938;8.488;2023-04-06T16:33:18;10.27;;;7.80;;
4391;SDS011;2210;51.938;8.488;2023-04-06T16:37:18;11.03;;;7.93;;
4391;SDS011;2210;51.938;8.488;2023-04-06T16:41:19;8.93;;;7.30;;
4391;SDS011;2210;51.938;8.488;2023-04-06T16:45:20;10.17;;;7.63;;
4391;SDS011;2210;51.938;8.488;2023-04-06T16:49:20;9.73;;;7.57;;
4391;SDS011;2210;51.938;8.488;2023-04-06T16:53:21;9.33;;;6.40;;
4391;SDS011;2210;51.938;8.488;2023-04-06T16:57:24;7.80;;;6.60;;
4391;SDS011;2210;51.938;8.488;2023-04-06T17:01:31;9.20;;;6.17;;
4391;SDS011;2210;51.938;8.488;2023-04-06T17:05:31;8.47;;;6.60;;
4391;SDS011;2210;51.938;8.488;2023-04-06T17:09:33;6.10;;;5.50;;
4391;SDS011;2210;51.938;8.488;2023-04-06T17:13:33;16.90;;;6.47;;
4391;SDS011;2210;51.938;8.488;2023-04-06T17:17:37;8.83;;;6.63;;
4391;SDS011;2210;51.938;8.488;2023-04-06T17:21:44;8.40;;;7.07;;
4391;SDS011;2210;51.938;8.488;2023-04-06T17:25:44;8.10;;;6.97;;
4391;SDS011;2210;51.938;8.488;2023-04-06T17:29:51;8.55;;;7.13;;
4391;SDS011;2210;51.938;8.488;2023-04-06T17:33:51;10.93;;;6.20;;
4391;SDS011;2210;51.938;8.488;2023-04-06T17:37:51;7.33;;;6.40;;
4391;SDS011;2210;51.938;8.488;2023-04-06T17:41:52;13.40;;;6.83;;
4391;SDS011;2210;51.938;8.488;2023-04-06T17:45:52;7.47;;;6.68;;
4391;SDS011;2210;51.938;8.488;2023-04-06T17:49:52;8.43;;;6.20;;
4391;SDS011;2210;51.938;8.488;2023-04-06T17:53:52;15.65;;;6.82;;
4391;SDS011;2210;51.938;8.488;2023-04-06T17:57:53;6.33;;;5.50;;
4391;SDS011;2210;51.938;8.488;2023-04-06T18:01:53;8.77;;;6.60;;
4391;SDS011;2210;51.938;8.488;2023-04-06T18:05:56;8.97;;;6.63;;
4391;SDS011;2210;51.938;8.488;2023-04-06T18:10:08;7.60;;;6.57;;
4391;SDS011;2210;51.938;8.488;2023-04-06T18:14:09;8.50;;;6.90;;
4391;SDS011;2210;51.938;8.488;2023-04-06T18:18:11;6.87;;;6.17;;
4391;SDS011;2210;51.938;8.488;2023-04-06T18:22:11;9.30;;;6.67;;
4391;SDS011;2210;51.938;8.488;2023-04-06T18:26:15;6.43;;;5.80;;
4391;SDS011;2210;51.938;8.488;2023-04-06T18:30:17;9.47;;;7.43;;
4391;SDS011;2210;51.938;8.488;2023-04-06T18:34:18;11.43;;;5.87;;
4391;SDS011;2210;51.938;8.488;2023-04-06T18:38:19;6.77;;;5.97;;
4391;SDS011;2210;51.938;8.488;2023-04-06T18:42:20;6.00;;;5.38;;
4391;SDS011;2210;51.938;8.488;2023-04-06T18:46:20;7.63;;;6.07;;
4391;SDS011;2210;51.938;8.488;2023-04-06T18:50:21;6.90;;;5.40;;
4391;SDS011;2210;51.938;8.488;2023-04-06T18:54:21;11.73;;;5.37;;
4391;SDS011;2210;51.938;8.488;2023-04-06T18:58:22;6.20;;;5.60;;
4391;SDS011;2210;51.938;8.488;2023-04-06T19:02:24;8.57;;;6.10;;
4391;SDS011;2210;51.938;8.488;2023-04-06T19:06:24;6.25;;;5.60;;
4391;SDS011;2210;51.938;8.488;2023-04-06T19:10:30;6.23;;;5.40;;
4391;SDS011;2210;51.938;8.488;2023-04-06T19:14:33;6.97;;;5.53;;
4391;SDS011;2210;51.938;8.488;2023-04-06T19:18:33;7.40;;;6.07;;
4391;SDS011;2210;51.938;8.488;2023-04-06T19:22:39;7.20;;;6.17;;
4391;SDS011;2210;51.938;8.488;2023-04-06T19:26:40;9.10;;;5.90;;
4391;SDS011;2210;51.938;8.488;2023-04-06T19:30:47;6.40;;;5.73;;
4391;SDS011;2210;51.938;8.488;2023-04-06T19:35:00;8.17;;;6.17;;
4391;SDS011;2210;51.938;8.488;2023-04-06T19:39:01;7.10;;;6.00;;
4391;SDS011;2210;51.938;8.488;2023-04-06T19:43:02;6.70;;;5.90;;
4391;SDS011;2210;51.938;8.488;2023-04-06T19:47:02;6.07;;;5.47;;
4391;SDS011;2210;51.938;8.488;2023-04-06T19:51:02;8.80;;;6.00;;
4391;SDS011;2210;51.938;8.488;2023-04-06T19:55:03;5.37;;;4.87;;
4391;SDS011;2210;51.938;8.488;2023-04-06T19:59:03;5.90;;;5.30;;
4391;SDS011;2210;51.938;8.488;2023-04-06T20:03:04;7.13;;;5.93;;
4391;SDS011;2210;51.938;8.488;2023-04-06T20:07:13;7.97;;;5.37;;
4391;SDS011;2210;51.938;8.488;2023-04-06T20:11:15;5.33;;;4.83;;
4391;SDS011;2210;51.938;8.488;2023-04-06T20:15:19;5.73;;;5.00;;
4391;SDS011;2210;51.938;8.488;2023-04-06T20:19:19;6.40;;;5.70;;
4391;SDS011;2210;51.938;8.488;2023-04-06T20:23:20;6.73;;;6.07;;
4391;SDS011;2210;51.938;8.488;2023-04-06T20:27:20;6.70;;;5.70;;
4391;SDS011;2210;51.938;8.488;2023-04-06T20:31:24;7.13;;;5.87;;
4391;SDS011;2210;51.938;8.488;2023-04-06T20:35:31;6.33;;;5.73;;
4391;SDS011;2210;51.938;8.488;2023-04-06T20:39:31;7.20;;;5.60;;
4391;SDS011;2210;51.938;8.488;2023-04-06T20:43:32;7.10;;;5.80;;
4391;SDS011;2210;51.938;8.488;2023-04-06T20:47:32;7.23;;;5.70;;
4391;SDS011;2210;51.938;8.488;2023-04-06T20:51:35;9.20;;;6.27;;
4391;SDS011;2210;51.938;8.488;2023-04-06T20:55:42;6.17;;;5.43;;
4391;SDS011;2210;51.938;8.488;2023-04-06T20:59:48;6.40;;;5.80;;
4391;SDS011;2210;51.938;8.488;2023-04-06T21:03:48;7.70;;;6.30;;
4391;SDS011;2210;51.938;8.488;2023-04-06T21:07:48;7.00;;;6.10;;
4391;SDS011;2210;51.938;8.488;2023-04-06T21:11:54;7.73;;;6.40;;
4391;SDS011;2210;51.938;8.488;2023-04-06T21:15:55;7.60;;;6.37;;
4391;SDS011;2210;51.938;8.488;2023-04-06T21:19:55;7.37;;;6.67;;
4391;SDS011;2210;51.938;8.488;2023-04-06T21:23:56;7.05;;;6.35;;
4391;SDS011;2210;51.938;8.488;2023-04-06T21:27:57;9.77;;;6.00;;
4391;SDS011;2210;51.938;8.488;2023-04-06T21:31:57;12.90;;;7.88;;
4391;SDS011;2210;51.938;8.488;2023-04-06T21:35:57;7.38;;;6.57;;
4391;SDS011;2210;51.938;8.488;2023-04-06T21:39:57;7.35;;;6.55;;
4391;SDS011;2210;51.938;8.488;2023-04-06T21:44:00;10.80;;;7.30;;
4391;SDS011;2210;51.938;8.488;2023-04-06T21:48:01;8.00;;;6.50;;
4391;SDS011;2210;51.938;8.488;2023-04-06T21:52:10;8.70;;;7.23;;
4391;SDS011;2210;51.938;8.488;2023-04-06T21:56:18;9.63;;;7.10;;
4391;SDS011;2210;51.938;8.488;2023-04-06T22:00:24;8.70;;;7.07;;
4391;SDS011;2210;51.938;8.488;2023-04-06T22:04:25;7.97;;;7.03;;
4391;SDS011;2210;51.938;8.488;2023-04-06T22:08:25;9.17;;;7.20;;
4391;SDS011;2210;51.938;8.488;2023-04-06T22:12:25;8.93;;;7.70;;
4391;SDS011;2210;51.938;8.488;2023-04-06T22:16:26;10.47;;;7.00;;
4391;SDS011;2210;51.938;8.488;2023-04-06T22:20:26;6.93;;;6.23;;
4391;SDS011;2210;51.938;8.488;2023-04-06T22:24:26;8.23;;;7.40;;
4391;SDS011;2210;51.938;8.488;2023-04-06T22:28:30;10.00;;;6.80;;
4391;SDS011;2210;51.938;8.488;2023-04-06T22:32:30;7.40;;;6.67;;
4391;SDS011;2210;51.938;8.488;2023-04-06T22:36:30;8.43;;;7.47;;
4391;SDS011;2210;51.938;8.488;2023-04-06T22:40:31;9.97;;;7.50;;
4391;SDS011;2210;51.938;8.488;2023-04-06T22:44:31;7.80;;;6.72;;
4391;SDS011;2210;51.938;8.488;2023-04-06T22:48:31;8.13;;;6.93;;
4391;SDS011;2210;51.938;8.488;2023-04-06T22:52:31;10.00;;;7.20;;
4391;SDS011;2210;51.938;8.488;2023-04-06T22:56:32;6.22;;;5.50;;
4391;SDS011;2210;51.938;8.488;2023-04-06T23:00:35;8.57;;;7.67;;
4391;SDS011;2210;51.938;8.488;2023-04-06T23:04:35;6.90;;;6.27;;
4391;SDS011;2210;51.938;8.488;2023-04-06T23:08:38;7.78;;;6.97;;
4391;SDS011;2210;51.938;8.488;2023-04-06T23:12:42;7.10;;;6.40;;
4391;SDS011;2210;51.938;8.488;2023-04-06T23:16:45;7.90;;;7.07;;
4391;SDS011;2210;51.938;8.488;2023-04-06T23:20:45;8.17;;;7.37;;
4391;SDS011;2210;51.938;8.488;2023-04-06T23:25:01;6.72;;;6.13;;
4391;SDS011;2210;51.938;8.488;2023-04-06T23:29:01;6.27;;;5.67;;
4391;SDS011;2210;51.938;8.488;2023-04-06T23:33:04;7.38;;;6.55;;
4391;SDS011;2210;51.938;8.488;2023-04-06T23:37:11;7.27;;;5.87;;
4391;SDS011;2210;51.938;8.488;2023-04-06T23:41:14;6.70;;;5.90;;
4391;SDS011;2210;51.938;8.488;2023-04-06T23:45:15;6.57;;;5.97;;
4391;SDS011;2210;51.938;8.488;2023-04-06T23:49:15;6.30;;;5.70;;
4391;SDS011;2210;51.938;8.488;2023-04-06T23:53:15;6.70;;;6.00;;
4391;SDS011;2210;51.938;8.488;2023-04-06T23:57:16;7.53;;;6.07;;
